createdAt,value
2018-05-10T00:00:38.988Z,25.75
2018-05-10T00:01:48.725Z,25.7
2018-05-10T00:02:58.152Z,25.7
2018-05-10T00:04:07.584Z,25.72
2018-05-10T00:05:17.011Z,25.75
2018-05-10T00:06:26.449Z,25.73
2018-05-10T00:07:36.219Z,25.73
2018-05-10T00:08:45.415Z,25.7
2018-05-10T00:09:54.596Z,25.69
2018-05-10T00:11:04.306Z,25.7
2018-05-10T00:12:13.791Z,25.73
2018-05-10T00:13:23.231Z,25.7
2018-05-10T00:14:32.657Z,25.69
2018-05-10T00:15:41.841Z,25.69
2018-05-10T00:16:50.771Z,25.73
2018-05-10T00:18:00.719Z,25.67
2018-05-10T00:19:10.146Z,25.69
2018-05-10T00:20:19.619Z,25.69
2018-05-10T00:21:28.567Z,25.73
2018-05-10T00:22:37.768Z,25.7
2018-05-10T00:23:46.950Z,25.67
2018-05-10T00:24:56.401Z,25.65
2018-05-10T00:26:05.333Z,25.65
2018-05-10T00:27:14.801Z,25.7
2018-05-10T00:28:24.795Z,25.67
2018-05-10T00:29:34.271Z,25.72
2018-05-10T00:30:43.215Z,25.7
2018-05-10T00:31:52.667Z,25.69
2018-05-10T00:33:01.891Z,25.7
2018-05-10T00:34:11.069Z,25.76
2018-05-10T00:35:20.765Z,25.65
2018-05-10T00:36:30.744Z,25.67
2018-05-10T00:37:40.450Z,25.7
2018-05-10T00:38:50.154Z,25.69
2018-05-10T00:39:59.087Z,25.72
2018-05-10T00:41:08.786Z,25.69
2018-05-10T00:42:17.948Z,25.69
2018-05-10T00:43:27.662Z,25.67
2018-05-10T00:44:36.848Z,25.67
2018-05-10T00:45:46.084Z,25.67
2018-05-10T00:46:55.815Z,25.69
2018-05-10T00:48:05.789Z,25.7
2018-05-10T00:49:15.533Z,25.73
2018-05-10T00:50:25.006Z,25.75
2018-05-10T00:51:34.434Z,25.64
2018-05-10T00:52:43.895Z,25.73
2018-05-10T00:53:53.345Z,25.67
2018-05-10T00:55:03.066Z,25.7
2018-05-10T00:56:13.041Z,25.7
2018-05-10T00:57:22.216Z,25.62
2018-05-10T00:58:32.170Z,25.65
2018-05-10T00:59:41.686Z,25.64
2018-05-10T01:00:50.878Z,25.62
2018-05-10T01:02:00.330Z,25.67
2018-05-10T01:03:10.281Z,25.6
2018-05-10T01:04:19.708Z,25.73
2018-05-10T01:05:28.892Z,25.64
2018-05-10T01:06:38.332Z,25.64
2018-05-10T01:07:48.021Z,25.67
2018-05-10T01:08:57.805Z,25.69
2018-05-10T01:10:06.461Z,25.7
2018-05-10T01:11:15.644Z,25.61
2018-05-10T01:12:24.839Z,25.67
2018-05-10T01:13:33.781Z,25.69
2018-05-10T01:14:43.220Z,25.64
2018-05-10T01:15:52.637Z,25.72
2018-05-10T01:17:02.565Z,25.65
2018-05-10T01:18:11.980Z,25.72
2018-05-10T01:19:21.182Z,25.69
2018-05-10T01:20:30.338Z,25.65
2018-05-10T01:21:39.252Z,25.72
2018-05-10T01:22:48.661Z,25.6
2018-05-10T01:23:58.616Z,25.64
2018-05-10T01:25:08.300Z,25.6
2018-05-10T01:26:17.725Z,25.62
2018-05-10T01:27:27.142Z,25.6
2018-05-10T01:28:36.305Z,25.64
2018-05-10T01:29:45.534Z,25.69
2018-05-10T01:30:54.955Z,25.65
2018-05-10T01:32:04.129Z,25.67
2018-05-10T01:33:13.817Z,25.67
2018-05-10T01:34:22.978Z,25.6
2018-05-10T01:35:32.770Z,25.61
2018-05-10T01:36:41.956Z,25.62
2018-05-10T01:37:51.388Z,25.65
2018-05-10T01:39:01.078Z,25.61
2018-05-10T01:40:10.248Z,25.65
2018-05-10T01:41:19.675Z,25.65
2018-05-10T01:42:29.387Z,25.62
2018-05-10T01:43:38.604Z,25.61
2018-05-10T01:44:48.314Z,25.6
2018-05-10T01:45:58.000Z,25.64
2018-05-10T01:47:07.719Z,25.65
2018-05-10T01:48:17.675Z,25.69
2018-05-10T01:49:27.111Z,25.61
2018-05-10T01:50:36.531Z,25.62
2018-05-10T01:51:46.219Z,25.7
2018-05-10T01:52:56.156Z,25.61
2018-05-10T01:54:05.850Z,25.6
2018-05-10T01:55:15.828Z,25.69
2018-05-10T01:56:25.260Z,25.62
2018-05-10T01:57:34.178Z,25.67
2018-05-10T01:58:43.629Z,25.67
2018-05-10T01:59:53.060Z,25.69
2018-05-10T02:01:01.966Z,25.64
2018-05-10T02:02:11.917Z,25.67
2018-05-10T02:03:21.112Z,25.6
2018-05-10T02:04:30.562Z,25.61
2018-05-10T02:05:39.994Z,25.55
2018-05-10T02:06:49.953Z,25.64
2018-05-10T02:07:59.422Z,25.64
2018-05-10T02:09:09.547Z,25.61
2018-05-10T02:10:19.224Z,25.64
2018-05-10T02:11:28.663Z,25.62
2018-05-10T02:12:38.092Z,25.61
2018-05-10T02:13:47.259Z,25.61
2018-05-10T02:14:56.696Z,25.58
2018-05-10T02:16:06.144Z,25.61
2018-05-10T02:17:15.864Z,25.61
2018-05-10T02:18:25.540Z,25.61
2018-05-10T02:19:35.254Z,25.62
2018-05-10T02:20:44.734Z,25.62
2018-05-10T02:21:54.706Z,25.61
2018-05-10T02:23:03.873Z,25.64
2018-05-10T02:24:13.231Z,25.62
2018-05-10T02:25:22.465Z,25.6
2018-05-10T02:26:31.145Z,25.57
2018-05-10T02:27:40.348Z,25.62
2018-05-10T02:28:49.796Z,25.62
2018-05-10T02:29:59.736Z,25.67
2018-05-10T02:31:09.147Z,25.58
2018-05-10T02:32:18.875Z,25.58
2018-05-10T02:33:28.300Z,25.57
2018-05-10T02:34:38.545Z,25.55
2018-05-10T02:35:47.980Z,25.58
2018-05-10T02:36:57.677Z,25.55
2018-05-10T02:38:07.112Z,25.57
2018-05-10T02:39:16.575Z,25.61
2018-05-10T02:40:26.291Z,25.55
2018-05-10T02:41:35.718Z,25.57
2018-05-10T02:42:45.186Z,25.6
2018-05-10T02:43:54.619Z,25.69
2018-05-10T02:45:03.731Z,25.54
2018-05-10T02:46:13.822Z,25.6
2018-05-10T02:47:23.531Z,25.55
2018-05-10T02:48:33.259Z,25.62
2018-05-10T02:49:42.993Z,25.64
2018-05-10T02:50:52.406Z,25.61
2018-05-10T02:52:02.363Z,25.58
2018-05-10T02:53:11.826Z,25.54
2018-05-10T02:54:21.906Z,25.61
2018-05-10T02:55:31.115Z,25.58
2018-05-10T02:56:40.553Z,25.58
2018-05-10T02:57:49.750Z,25.58
2018-05-10T02:58:59.179Z,25.54
2018-05-10T03:00:08.860Z,25.6
2018-05-10T03:01:18.294Z,25.58
2018-05-10T03:02:26.965Z,25.61
2018-05-10T03:03:36.134Z,25.54
2018-05-10T03:04:45.847Z,25.51
2018-05-10T03:05:55.046Z,25.54
2018-05-10T03:07:04.770Z,25.52
2018-05-10T03:08:14.224Z,25.6
2018-05-10T03:09:23.382Z,25.52
2018-05-10T03:10:32.616Z,25.64
2018-05-10T03:11:42.095Z,25.57
2018-05-10T03:12:51.285Z,25.57
2018-05-10T03:14:00.730Z,25.6
2018-05-10T03:15:09.882Z,25.58
2018-05-10T03:16:19.042Z,25.6
2018-05-10T03:17:28.227Z,25.62
2018-05-10T03:18:37.665Z,25.6
2018-05-10T03:19:47.092Z,25.57
2018-05-10T03:20:56.503Z,25.58
2018-05-10T03:22:05.682Z,25.57
2018-05-10T03:23:15.115Z,25.58
2018-05-10T03:24:24.797Z,25.57
2018-05-10T03:25:34.025Z,25.46
2018-05-10T03:26:43.207Z,25.57
2018-05-10T03:27:52.922Z,25.55
2018-05-10T03:29:02.662Z,25.5
2018-05-10T03:30:12.622Z,25.54
2018-05-10T03:31:22.063Z,25.52
2018-05-10T03:32:31.255Z,25.51
2018-05-10T03:33:40.938Z,25.54
2018-05-10T03:34:50.880Z,25.51
2018-05-10T03:36:00.563Z,25.5
2018-05-10T03:37:09.762Z,25.57
2018-05-10T03:38:19.211Z,25.52
2018-05-10T03:39:28.364Z,25.58
2018-05-10T03:40:38.222Z,25.45
2018-05-10T03:41:46.914Z,25.52
2018-05-10T03:42:55.821Z,25.43
2018-05-10T03:44:05.225Z,25.55
2018-05-10T03:45:14.910Z,25.61
2018-05-10T03:46:24.040Z,25.58
2018-05-10T03:47:33.889Z,25.52
2018-05-10T03:48:42.804Z,25.55
2018-05-10T03:49:51.979Z,25.6
2018-05-10T03:51:01.412Z,25.51
2018-05-10T03:52:11.374Z,25.55
2018-05-10T03:53:20.853Z,25.52
2018-05-10T03:54:30.338Z,25.54
2018-05-10T03:55:39.504Z,25.51
2018-05-10T03:56:48.944Z,25.52
2018-05-10T03:57:58.155Z,25.51
2018-05-10T03:59:07.864Z,25.51
2018-05-10T04:00:17.544Z,25.51
2018-05-10T04:01:27.009Z,25.57
2018-05-10T04:02:35.918Z,25.46
2018-05-10T04:03:45.341Z,25.52
2018-05-10T04:04:54.780Z,25.6
2018-05-10T04:06:04.144Z,25.5
2018-05-10T04:07:14.012Z,25.47
2018-05-10T04:08:23.438Z,25.57
2018-05-10T04:09:32.862Z,25.54
2018-05-10T04:10:42.572Z,25.5
2018-05-10T04:11:52.516Z,25.5
2018-05-10T04:13:01.687Z,25.45
2018-05-10T04:14:11.116Z,25.45
2018-05-10T04:15:20.796Z,25.55
2018-05-10T04:16:29.967Z,25.51
2018-05-10T04:17:39.409Z,25.46
2018-05-10T04:18:48.825Z,25.47
2018-05-10T04:19:58.253Z,25.51
2018-05-10T04:21:07.693Z,25.46
2018-05-10T04:22:16.644Z,25.5
2018-05-10T04:23:26.333Z,25.46
2018-05-10T04:24:35.766Z,25.46
2018-05-10T04:25:44.953Z,25.47
2018-05-10T04:26:54.620Z,25.5
2018-05-10T04:28:04.299Z,25.46
2018-05-10T04:29:13.978Z,25.46
2018-05-10T04:30:23.666Z,25.5
2018-05-10T04:31:33.093Z,25.52
2018-05-10T04:32:42.807Z,25.46
2018-05-10T04:33:51.976Z,25.47
2018-05-10T04:35:00.885Z,25.47
2018-05-10T04:36:10.343Z,25.46
2018-05-10T04:37:19.797Z,25.46
2018-05-10T04:38:29.253Z,25.5
2018-05-10T04:39:38.704Z,25.47
2018-05-10T04:40:48.139Z,25.51
2018-05-10T04:41:57.322Z,25.46
2018-05-10T04:43:06.759Z,25.5
2018-05-10T04:44:16.202Z,25.46
2018-05-10T04:45:25.376Z,25.36
2018-05-10T04:46:34.815Z,25.47
2018-05-10T04:47:43.983Z,25.52
2018-05-10T04:48:53.166Z,25.38
2018-05-10T04:50:03.022Z,25.5
2018-05-10T04:51:12.732Z,25.46
2018-05-10T04:52:22.426Z,25.42
2018-05-10T04:53:31.863Z,25.47
2018-05-10T04:54:41.046Z,25.38
2018-05-10T04:55:50.581Z,25.5
2018-05-10T04:57:00.039Z,25.47
2018-05-10T04:58:09.486Z,25.52
2018-05-10T04:59:18.932Z,25.52
2018-05-10T05:00:28.615Z,25.51
2018-05-10T05:01:38.554Z,25.51
2018-05-10T05:02:48.231Z,25.5
2018-05-10T05:03:57.649Z,25.47
2018-05-10T05:05:07.174Z,25.46
2018-05-10T05:06:16.426Z,25.51
2018-05-10T05:07:25.866Z,25.47
2018-05-10T05:08:35.326Z,25.47
2018-05-10T05:09:44.997Z,25.46
2018-05-10T05:10:54.177Z,25.36
2018-05-10T05:12:02.942Z,25.35
2018-05-10T05:13:11.999Z,25.46
2018-05-10T05:14:21.435Z,25.47
2018-05-10T05:15:30.852Z,25.39
2018-05-10T05:16:40.294Z,25.4
2018-05-10T05:17:49.973Z,25.36
2018-05-10T05:18:59.164Z,25.47
2018-05-10T05:20:08.101Z,25.47
2018-05-10T05:21:17.549Z,25.36
2018-05-10T05:22:26.992Z,25.36
2018-05-10T05:23:35.645Z,25.42
2018-05-10T05:24:45.096Z,25.46
2018-05-10T05:25:54.783Z,25.35
2018-05-10T05:27:04.465Z,25.4
2018-05-10T05:28:14.475Z,25.4
2018-05-10T05:29:23.936Z,25.46
2018-05-10T05:30:33.612Z,25.33
2018-05-10T05:31:42.562Z,25.32
2018-05-10T05:32:52.116Z,25.35
2018-05-10T05:34:00.771Z,25.46
2018-05-10T05:35:10.533Z,25.43
2018-05-10T05:36:19.992Z,25.4
2018-05-10T05:37:29.682Z,25.45
2018-05-10T05:38:38.879Z,25.4
2018-05-10T05:39:48.066Z,25.35
2018-05-10T05:40:57.890Z,25.36
2018-05-10T05:42:06.975Z,25.33
2018-05-10T05:43:17.365Z,25.4
2018-05-10T05:44:27.160Z,25.38
2018-05-10T05:45:36.087Z,25.45
2018-05-10T05:46:45.017Z,25.36
2018-05-10T05:47:54.466Z,25.38
2018-05-10T05:49:04.181Z,25.35
2018-05-10T05:50:13.628Z,25.38
2018-05-10T05:51:23.748Z,25.45
2018-05-10T05:52:33.185Z,25.33
2018-05-10T05:53:42.620Z,25.33
2018-05-10T05:54:52.306Z,25.38
2018-05-10T05:56:02.097Z,25.35
2018-05-10T05:57:11.299Z,25.42
2018-05-10T05:58:21.027Z,25.4
2018-05-10T05:59:30.457Z,25.38
2018-05-10T06:00:39.391Z,25.33
2018-05-10T06:01:49.078Z,25.46
2018-05-10T06:02:58.261Z,25.39
2018-05-10T06:04:07.191Z,25.38
2018-05-10T06:05:16.654Z,25.43
2018-05-10T06:06:25.865Z,25.43
2018-05-10T06:07:35.359Z,25.38
2018-05-10T06:08:45.228Z,25.42
2018-05-10T06:09:55.187Z,25.42
2018-05-10T06:11:04.888Z,25.39
2018-05-10T06:12:14.330Z,25.4
2018-05-10T06:13:23.499Z,25.4
2018-05-10T06:14:33.457Z,25.42
2018-05-10T06:15:43.138Z,25.4
2018-05-10T06:16:53.347Z,25.4
2018-05-10T06:18:03.053Z,25.43
2018-05-10T06:19:12.326Z,25.4
2018-05-10T06:20:21.308Z,25.39
2018-05-10T06:21:30.756Z,25.42
2018-05-10T06:22:40.180Z,25.38
2018-05-10T06:23:49.612Z,25.42
2018-05-10T06:24:59.308Z,25.4
2018-05-10T06:26:09.324Z,25.43
2018-05-10T06:27:18.488Z,25.38
2018-05-10T06:28:28.202Z,25.39
2018-05-10T06:29:37.608Z,25.33
2018-05-10T06:30:47.059Z,25.36
2018-05-10T06:31:57.012Z,25.42
2018-05-10T06:33:06.702Z,25.39
2018-05-10T06:34:15.720Z,25.35
2018-05-10T06:35:24.355Z,25.42
2018-05-10T06:36:34.058Z,25.32
2018-05-10T06:37:43.525Z,25.38
2018-05-10T06:38:52.979Z,25.33
2018-05-10T06:40:02.479Z,25.38
2018-05-10T06:41:12.659Z,25.38
2018-05-10T06:42:22.740Z,25.45
2018-05-10T06:43:32.181Z,25.42
2018-05-10T06:44:42.225Z,25.42
2018-05-10T06:45:51.701Z,25.35
2018-05-10T06:47:01.781Z,25.4
2018-05-10T06:48:11.523Z,25.39
2018-05-10T06:49:21.203Z,25.42
2018-05-10T06:50:30.206Z,25.39
2018-05-10T06:51:39.621Z,25.42
2018-05-10T06:52:49.073Z,25.36
2018-05-10T06:53:58.298Z,25.33
2018-05-10T06:55:07.747Z,25.36
2018-05-10T06:56:17.211Z,25.4
2018-05-10T06:57:26.389Z,25.43
2018-05-10T06:58:36.070Z,25.35
2018-05-10T06:59:45.561Z,25.43
2018-05-10T07:00:55.564Z,25.38
2018-05-10T07:02:05.345Z,25.35
2018-05-10T07:03:14.835Z,25.36
2018-05-10T07:04:24.413Z,25.36
2018-05-10T07:05:33.904Z,25.46
2018-05-10T07:06:42.919Z,25.38
2018-05-10T07:07:53.046Z,25.42
2018-05-10T07:09:02.865Z,25.39
2018-05-10T07:10:12.593Z,25.36
2018-05-10T07:11:21.565Z,25.46
2018-05-10T07:12:31.668Z,25.33
2018-05-10T07:13:41.078Z,25.35
2018-05-10T07:14:50.515Z,25.38
2018-05-10T07:16:00.903Z,25.35
2018-05-10T07:17:10.357Z,25.36
2018-05-10T07:18:19.779Z,25.36
2018-05-10T07:19:28.936Z,25.46
2018-05-10T07:20:38.626Z,25.4
2018-05-10T07:21:48.058Z,25.42
2018-05-10T07:22:57.474Z,25.36
2018-05-10T07:24:07.440Z,25.4
2018-05-10T07:25:17.484Z,25.38
2018-05-10T07:26:26.831Z,25.4
2018-05-10T07:27:36.301Z,25.4
2018-05-10T07:28:45.764Z,25.38
2018-05-10T07:29:54.973Z,25.36
2018-05-10T07:31:04.151Z,25.46
2018-05-10T07:32:13.878Z,25.39
2018-05-10T07:33:23.054Z,25.39
2018-05-10T07:34:32.740Z,25.38
2018-05-10T07:35:42.176Z,25.45
2018-05-10T07:36:51.358Z,25.35
2018-05-10T07:38:00.882Z,25.35
2018-05-10T07:39:10.326Z,25.39
2018-05-10T07:40:19.785Z,25.4
2018-05-10T07:41:29.717Z,25.39
2018-05-10T07:42:39.153Z,25.36
2018-05-10T07:43:48.598Z,25.38
2018-05-10T07:44:57.766Z,25.33
2018-05-10T07:46:07.180Z,25.4
2018-05-10T07:47:17.588Z,25.38
2018-05-10T07:48:27.290Z,25.4
2018-05-10T07:49:36.186Z,25.36
2018-05-10T07:50:45.353Z,25.45
2018-05-10T07:51:55.333Z,25.39
2018-05-10T07:53:05.175Z,25.45
2018-05-10T07:54:15.039Z,25.42
2018-05-10T07:55:24.472Z,25.32
2018-05-10T07:56:34.138Z,25.35
2018-05-10T07:57:43.810Z,25.42
2018-05-10T07:58:53.022Z,25.39
2018-05-10T08:00:02.726Z,25.38
2018-05-10T08:01:11.919Z,25.3
2018-05-10T08:02:21.867Z,25.35
2018-05-10T08:03:31.224Z,25.33
2018-05-10T08:04:41.191Z,25.3
2018-05-10T08:05:51.104Z,25.36
2018-05-10T08:07:00.675Z,25.3
2018-05-10T08:08:10.098Z,25.39
2018-05-10T08:09:20.246Z,25.38
2018-05-10T08:10:29.507Z,25.39
2018-05-10T08:11:39.570Z,25.3
2018-05-10T08:12:48.773Z,25.38
2018-05-10T08:13:58.463Z,25.36
2018-05-10T08:15:07.656Z,25.35
2018-05-10T08:16:17.364Z,25.38
2018-05-10T08:17:26.592Z,25.28
2018-05-10T08:18:36.023Z,25.33
2018-05-10T08:19:44.933Z,25.38
2018-05-10T08:20:54.108Z,25.38
2018-05-10T08:22:03.807Z,25.39
2018-05-10T08:23:13.035Z,25.33
2018-05-10T08:24:22.718Z,25.33
2018-05-10T08:25:32.303Z,25.39
2018-05-10T08:26:41.489Z,25.38
2018-05-10T08:27:51.213Z,25.3
2018-05-10T08:29:00.459Z,25.39
2018-05-10T08:30:09.545Z,25.36
2018-05-10T08:31:19.056Z,25.32
2018-05-10T08:32:28.018Z,25.27
2018-05-10T08:33:37.764Z,25.38
2018-05-10T08:34:47.256Z,25.33
2018-05-10T08:35:56.975Z,25.32
2018-05-10T08:37:06.165Z,25.39
2018-05-10T08:38:15.675Z,25.38
2018-05-10T08:39:24.845Z,25.3
2018-05-10T08:40:34.036Z,25.27
2018-05-10T08:41:43.743Z,25.3
2018-05-10T08:42:52.984Z,25.27
2018-05-10T08:44:02.700Z,25.25
2018-05-10T08:45:12.785Z,25.3
2018-05-10T08:46:22.484Z,25.36
2018-05-10T08:47:31.944Z,25.38
2018-05-10T08:48:41.168Z,25.27
2018-05-10T08:49:50.926Z,25.3
2018-05-10T08:50:59.903Z,25.28
2018-05-10T08:52:09.471Z,25.27
2018-05-10T08:53:18.695Z,25.3
2018-05-10T08:54:28.141Z,25.28
2018-05-10T08:55:37.306Z,25.36
2018-05-10T08:56:46.515Z,25.28
2018-05-10T08:57:56.562Z,25.3
2018-05-10T08:59:06.295Z,25.32
2018-05-10T09:00:15.884Z,25.28
2018-05-10T09:01:26.493Z,25.35
2018-05-10T09:02:35.943Z,25.28
2018-05-10T09:03:45.930Z,25.39
2018-05-10T09:04:55.148Z,25.33
2018-05-10T09:06:04.608Z,25.33
2018-05-10T09:07:13.802Z,25.35
2018-05-10T09:08:23.404Z,25.33
2018-05-10T09:09:32.701Z,25.42
2018-05-10T09:10:42.142Z,25.35
2018-05-10T09:11:51.584Z,25.35
2018-05-10T09:13:01.278Z,25.38
2018-05-10T09:14:11.005Z,25.42
2018-05-10T09:15:20.228Z,25.39
2018-05-10T09:16:29.921Z,25.46
2018-05-10T09:17:38.885Z,25.33
2018-05-10T09:18:47.841Z,25.35
2018-05-10T09:19:57.831Z,25.47
2018-05-10T09:21:06.758Z,25.46
2018-05-10T09:22:16.746Z,25.47
2018-05-10T09:23:26.204Z,25.47
2018-05-10T09:24:35.944Z,25.5
2018-05-10T09:25:45.428Z,25.43
2018-05-10T09:26:54.625Z,25.51
2018-05-10T09:28:04.127Z,25.52
2018-05-10T09:29:13.557Z,25.46
2018-05-10T09:30:22.735Z,25.47
2018-05-10T09:31:31.984Z,25.52
2018-05-10T09:32:41.935Z,25.47
2018-05-10T09:33:52.019Z,25.52
2018-05-10T09:35:01.546Z,25.47
2018-05-10T09:36:11.221Z,25.51
2018-05-10T09:37:20.705Z,25.46
2018-05-10T09:38:30.410Z,25.51
2018-05-10T09:39:39.636Z,25.51
2018-05-10T09:40:48.980Z,25.55
2018-05-10T09:41:58.551Z,25.5
2018-05-10T09:43:08.238Z,25.57
2018-05-10T09:44:17.393Z,25.55
2018-05-10T09:45:27.136Z,25.51
2018-05-10T09:46:37.072Z,25.51
2018-05-10T09:47:46.753Z,25.51
2018-05-10T09:48:56.216Z,25.47
2018-05-10T09:50:05.149Z,25.55
2018-05-10T09:51:14.336Z,25.52
2018-05-10T09:52:23.522Z,25.5
2018-05-10T09:53:33.017Z,25.54
2018-05-10T09:54:42.198Z,25.51
2018-05-10T09:55:51.896Z,25.55
2018-05-10T09:57:01.365Z,25.47
2018-05-10T09:58:10.583Z,25.46
2018-05-10T09:59:20.463Z,25.51
2018-05-10T10:00:30.181Z,25.45
2018-05-10T10:01:39.895Z,25.51
2018-05-10T10:02:49.572Z,25.61
2018-05-10T10:03:58.990Z,25.52
2018-05-10T10:05:08.161Z,25.52
2018-05-10T10:06:18.200Z,25.61
2018-05-10T10:07:27.780Z,25.5
2018-05-10T10:08:36.941Z,25.52
2018-05-10T10:09:46.375Z,25.52
2018-05-10T10:10:55.594Z,25.46
2018-05-10T10:12:05.048Z,25.51
2018-05-10T10:13:14.729Z,25.61
2018-05-10T10:14:24.303Z,25.6
2018-05-10T10:15:33.756Z,25.54
2018-05-10T10:16:43.584Z,25.5
2018-05-10T10:17:53.032Z,25.6
2018-05-10T10:19:02.717Z,25.6
2018-05-10T10:20:12.499Z,25.62
2018-05-10T10:21:21.420Z,25.57
2018-05-10T10:22:31.124Z,25.55
2018-05-10T10:23:40.903Z,25.57
2018-05-10T10:24:50.602Z,25.52
2018-05-10T10:26:00.294Z,25.46
2018-05-10T10:27:09.997Z,25.46
2018-05-10T10:28:19.692Z,25.61
2018-05-10T10:29:29.138Z,25.54
2018-05-10T10:30:38.586Z,25.61
2018-05-10T10:31:47.549Z,25.57
2018-05-10T10:32:56.718Z,25.57
2018-05-10T10:34:05.908Z,25.46
2018-05-10T10:35:15.615Z,25.61
2018-05-10T10:36:25.139Z,25.61
2018-05-10T10:37:34.319Z,25.54
2018-05-10T10:38:43.739Z,25.5
2018-05-10T10:39:52.955Z,25.54
2018-05-10T10:41:02.629Z,25.61
2018-05-10T10:42:11.551Z,25.6
2018-05-10T10:43:20.992Z,25.47
2018-05-10T10:44:30.187Z,25.51
2018-05-10T10:45:39.912Z,25.54
2018-05-10T10:46:49.350Z,25.55
2018-05-10T10:47:59.096Z,25.64
2018-05-10T10:49:08.816Z,25.58
2018-05-10T10:50:18.521Z,25.64
2018-05-10T10:51:27.983Z,25.57
2018-05-10T10:52:37.657Z,25.57
2018-05-10T10:53:47.171Z,25.55
2018-05-10T10:54:56.736Z,25.58
2018-05-10T10:56:05.407Z,25.58
2018-05-10T10:57:14.935Z,25.5
2018-05-10T10:58:24.679Z,25.55
2018-05-10T10:59:33.839Z,25.62
2018-05-10T11:00:43.636Z,25.46
2018-05-10T11:01:53.330Z,25.61
2018-05-10T11:03:02.836Z,25.52
2018-05-10T11:04:12.043Z,25.58
2018-05-10T11:05:21.742Z,25.5
2018-05-10T11:06:31.682Z,25.57
2018-05-10T11:07:41.121Z,25.6
2018-05-10T11:08:50.352Z,25.6
2018-05-10T11:09:59.859Z,25.6
2018-05-10T11:11:09.020Z,25.43
2018-05-10T11:12:18.700Z,25.58
2018-05-10T11:13:28.187Z,25.5
2018-05-10T11:14:37.865Z,25.55
2018-05-10T11:15:47.313Z,25.6
2018-05-10T11:16:56.495Z,25.58
2018-05-10T11:18:05.889Z,25.61
2018-05-10T11:19:14.883Z,25.57
2018-05-10T11:20:23.869Z,25.6
2018-05-10T11:21:33.549Z,25.57
2018-05-10T11:22:42.992Z,25.46
2018-05-10T11:23:53.060Z,25.57
2018-05-10T11:25:02.804Z,25.5
2018-05-10T11:26:12.241Z,25.57
2018-05-10T11:27:20.971Z,25.57
2018-05-10T11:28:29.991Z,25.57
2018-05-10T11:29:38.961Z,25.64
2018-05-10T11:30:48.472Z,25.54
2018-05-10T11:31:57.932Z,25.51
2018-05-10T11:33:07.951Z,25.54
2018-05-10T11:34:18.104Z,25.46
2018-05-10T11:35:27.572Z,25.57
2018-05-10T11:36:36.988Z,25.52
2018-05-10T11:37:46.273Z,25.46
2018-05-10T11:38:58.460Z,25.52
2018-05-10T11:40:09.627Z,25.57
2018-05-10T11:41:19.337Z,25.51
2018-05-10T11:42:28.524Z,25.61
2018-05-10T11:43:37.930Z,25.5
2018-05-10T11:44:47.629Z,25.51
2018-05-10T11:45:57.337Z,25.52
2018-05-10T11:47:07.031Z,25.58
2018-05-10T11:48:16.210Z,25.52
2018-05-10T11:49:25.637Z,25.57
2018-05-10T11:50:34.834Z,25.43
2018-05-10T11:51:44.507Z,25.58
2018-05-10T11:52:54.286Z,25.61
2018-05-10T11:54:04.013Z,25.45
2018-05-10T11:55:13.708Z,25.52
2018-05-10T11:56:22.903Z,25.42
2018-05-10T11:57:32.584Z,25.46
2018-05-10T11:58:42.516Z,25.62
2018-05-10T11:59:52.026Z,25.57
2018-05-10T12:01:01.455Z,25.54
2018-05-10T12:02:10.921Z,25.47
2018-05-10T12:03:20.642Z,25.46
2018-05-10T12:04:30.371Z,25.54
2018-05-10T12:05:39.798Z,25.55
2018-05-10T12:06:49.500Z,25.55
2018-05-10T12:07:58.967Z,25.6
2018-05-10T12:09:08.423Z,25.5
2018-05-10T12:10:17.607Z,25.55
2018-05-10T12:11:27.326Z,25.55
2018-05-10T12:12:36.776Z,25.5
2018-05-10T12:13:46.485Z,25.47
2018-05-10T12:14:56.208Z,25.46
2018-05-10T12:16:05.458Z,25.5
2018-05-10T12:17:15.013Z,25.5
2018-05-10T12:18:24.717Z,25.46
2018-05-10T12:19:34.694Z,25.46
2018-05-10T12:20:44.131Z,25.38
2018-05-10T12:21:53.351Z,25.46
2018-05-10T12:23:03.344Z,25.46
2018-05-10T12:24:12.815Z,25.52
2018-05-10T12:25:22.253Z,25.42
2018-05-10T12:26:32.298Z,25.46
2018-05-10T12:27:42.058Z,25.47
2018-05-10T12:28:51.787Z,25.52
2018-05-10T12:30:00.987Z,25.47
2018-05-10T12:31:11.047Z,25.45
2018-05-10T12:32:20.475Z,25.51
2018-05-10T12:33:29.893Z,25.51
2018-05-10T12:34:38.802Z,25.38
2018-05-10T12:35:48.499Z,25.5
2018-05-10T12:36:57.655Z,25.52
2018-05-10T12:38:07.368Z,25.5
2018-05-10T12:39:16.318Z,25.45
2018-05-10T12:40:25.752Z,25.51
2018-05-10T12:41:35.724Z,25.43
2018-05-10T12:42:45.236Z,25.46
2018-05-10T12:43:54.446Z,25.45
2018-05-10T12:45:03.871Z,25.38
2018-05-10T12:46:13.592Z,25.35
2018-05-10T12:47:23.057Z,25.46
2018-05-10T12:48:32.503Z,25.47
2018-05-10T12:49:42.054Z,25.38
2018-05-10T12:50:51.793Z,25.33
2018-05-10T12:52:01.238Z,25.4
2018-05-10T12:53:10.929Z,25.38
2018-05-10T12:54:20.341Z,25.35
2018-05-10T12:55:30.049Z,25.38
2018-05-10T12:56:39.753Z,25.35
2018-05-10T12:57:49.466Z,25.38
2018-05-10T12:58:58.132Z,25.39
2018-05-10T13:00:07.563Z,25.33
2018-05-10T13:01:16.718Z,25.36
2018-05-10T13:02:26.922Z,25.38
2018-05-10T13:03:36.349Z,25.45
2018-05-10T13:04:45.590Z,25.36
2018-05-10T13:05:55.989Z,25.33
2018-05-10T13:07:05.176Z,25.4
2018-05-10T13:08:14.617Z,25.42
2018-05-10T13:09:24.128Z,25.35
2018-05-10T13:10:33.314Z,25.39
2018-05-10T13:11:42.740Z,25.43
2018-05-10T13:12:52.169Z,25.33
2018-05-10T13:14:01.101Z,25.36
2018-05-10T13:15:10.785Z,25.42
2018-05-10T13:16:20.644Z,25.4
2018-05-10T13:17:30.616Z,25.39
2018-05-10T13:18:40.038Z,25.33
2018-05-10T13:19:49.752Z,25.36
2018-05-10T13:20:59.197Z,25.32
2018-05-10T13:22:09.010Z,25.39
2018-05-10T13:23:18.215Z,25.36
2018-05-10T13:24:27.428Z,25.35
2018-05-10T13:25:36.895Z,25.35
2018-05-10T13:26:46.338Z,25.3
2018-05-10T13:27:55.805Z,25.32
2018-05-10T13:29:05.899Z,25.39
2018-05-10T13:30:15.319Z,25.36
2018-05-10T13:31:24.248Z,25.36
2018-05-10T13:32:33.710Z,25.28
2018-05-10T13:33:44.745Z,25.33
2018-05-10T13:34:54.781Z,25.36
2018-05-10T13:36:04.265Z,25.38
2018-05-10T13:37:14.217Z,25.35
2018-05-10T13:38:24.178Z,25.38
2018-05-10T13:39:33.990Z,25.42
2018-05-10T13:40:43.765Z,25.42
2018-05-10T13:41:53.517Z,25.42
2018-05-10T13:43:03.289Z,25.32
2018-05-10T13:44:12.977Z,25.38
2018-05-10T13:45:22.668Z,25.38
2018-05-10T13:46:31.583Z,25.36
2018-05-10T13:47:41.722Z,25.4
2018-05-10T13:48:50.997Z,25.39
2018-05-10T13:50:00.986Z,25.36
2018-05-10T13:51:10.171Z,25.36
2018-05-10T13:52:19.859Z,25.35
2018-05-10T13:53:29.297Z,25.36
2018-05-10T13:54:38.741Z,25.38
2018-05-10T13:55:48.691Z,25.38
2018-05-10T13:56:58.628Z,25.46
2018-05-10T13:58:08.561Z,25.38
2018-05-10T13:59:17.783Z,25.45
2018-05-10T14:00:27.557Z,25.35
2018-05-10T14:01:37.236Z,25.42
2018-05-10T14:02:46.414Z,25.5
2018-05-10T14:03:55.828Z,25.47
2018-05-10T14:05:05.270Z,25.45
2018-05-10T14:06:14.247Z,25.47
2018-05-10T14:07:23.949Z,25.47
2018-05-10T14:08:33.673Z,25.52
2018-05-10T14:09:42.839Z,25.51
2018-05-10T14:10:52.452Z,25.55
2018-05-10T14:12:01.337Z,25.51
2018-05-10T14:13:10.520Z,25.5
2018-05-10T14:14:20.480Z,25.58
2018-05-10T14:15:29.652Z,25.47
2018-05-10T14:16:39.407Z,25.51
2018-05-10T14:17:48.939Z,25.55
2018-05-10T14:18:58.655Z,25.57
2018-05-10T14:20:08.098Z,25.54
2018-05-10T14:21:17.526Z,25.46
2018-05-10T14:22:27.216Z,25.55
2018-05-10T14:23:36.671Z,25.45
2018-05-10T14:24:46.184Z,25.55
2018-05-10T14:25:55.622Z,25.47
2018-05-10T14:27:05.082Z,25.52
2018-05-10T14:28:14.267Z,25.54
2018-05-10T14:29:23.985Z,25.55
2018-05-10T14:30:33.460Z,25.52
2018-05-10T14:31:42.653Z,25.46
2018-05-10T14:32:52.931Z,25.52
2018-05-10T14:34:03.060Z,25.52
2018-05-10T14:35:12.854Z,25.52
2018-05-10T14:36:22.313Z,25.55
2018-05-10T14:37:31.779Z,25.62
2018-05-10T14:38:42.054Z,25.57
2018-05-10T14:39:52.019Z,25.58
2018-05-10T14:41:01.696Z,25.51
2018-05-10T14:42:11.164Z,25.6
2018-05-10T14:43:20.360Z,25.65
2018-05-10T14:44:29.778Z,25.55
2018-05-10T14:45:38.954Z,25.61
2018-05-10T14:46:48.761Z,25.57
2018-05-10T14:47:58.800Z,25.58
2018-05-10T14:49:08.280Z,25.69
2018-05-10T14:50:17.726Z,25.67
2018-05-10T14:51:27.415Z,25.61
2018-05-10T14:52:36.874Z,25.62
2018-05-10T14:53:46.355Z,25.58
2018-05-10T14:54:55.781Z,25.64
2018-05-10T14:56:04.972Z,25.61
2018-05-10T14:57:14.404Z,25.7
2018-05-10T14:58:24.098Z,25.6
2018-05-10T14:59:33.300Z,25.69